sensor_id;sensor_type;location;lat;lon;timestamp;temperature;humidity
22895;DHT22;11614;52.494;6.976;2022-08-07T00:13:20;12.10;99.90
22895;DHT22;11614;52.494;6.976;2022-08-07T00:15:47;12.10;99.90
22895;DHT22;11614;52.494;6.976;2022-08-07T00:18:17;12.10;99.90
22895;DHT22;11614;52.494;6.976;2022-08-07T00:32:58;11.90;99.90
22895;DHT22;11614;52.494;6.976;2022-08-07T00:40:16;11.90;99.90
22895;DHT22;11614;52.494;6.976;2022-08-07T00:45:08;11.60;99.90
22895;DHT22;11614;52.494;6.976;2022-08-07T00:59:45;11.80;99.90
22895;DHT22;11614;52.494;6.976;2022-08-07T01:04:37;11.80;99.90
22895;DHT22;11614;52.494;6.976;2022-08-07T01:09:31;11.90;99.90
22895;DHT22;11614;52.494;6.976;2022-08-07T01:14:23;11.70;99.90
22895;DHT22;11614;52.494;6.976;2022-08-07T01:19:18;11.60;99.90
22895;DHT22;11614;52.494;6.976;2022-08-07T01:21:45;11.60;99.90
22895;DHT22;11614;52.494;6.976;2022-08-07T01:24:12;11.50;99.90
22895;DHT22;11614;52.494;6.976;2022-08-07T01:26:38;11.70;99.90
22895;DHT22;11614;52.494;6.976;2022-08-07T01:34:02;11.40;99.90
22895;DHT22;11614;52.494;6.976;2022-08-07T01:36:29;11.30;99.90
22895;DHT22;11614;52.494;6.976;2022-08-07T01:38:55;11.40;99.90
22895;DHT22;11614;52.494;6.976;2022-08-07T01:41:21;11.20;99.90
22895;DHT22;11614;52.494;6.976;2022-08-07T01:43:48;11.20;99.90
22895;DHT22;11614;52.494;6.976;2022-08-07T01:46:15;11.10;99.90
22895;DHT22;11614;52.494;6.976;2022-08-07T01:48:42;11.10;99.90
22895;DHT22;11614;52.494;6.976;2022-08-07T01:51:10;11.00;99.90
22895;DHT22;11614;52.494;6.976;2022-08-07T01:53:39;11.00;99.90
22895;DHT22;11614;52.494;6.976;2022-08-07T01:56:13;11.00;99.90
22895;DHT22;11614;52.494;6.976;2022-08-07T01:58:48;10.90;99.90
22895;DHT22;11614;52.494;6.976;2022-08-07T02:01:23;11.00;99.90
22895;DHT22;11614;52.494;6.976;2022-08-07T02:03:57;10.80;99.90
22895;DHT22;11614;52.494;6.976;2022-08-07T02:06:26;10.90;99.90
22895;DHT22;11614;52.494;6.976;2022-08-07T02:08:54;10.90;99.90
22895;DHT22;11614;52.494;6.976;2022-08-07T02:18:41;10.80;99.90
22895;DHT22;11614;52.494;6.976;2022-08-07T02:23:37;10.90;99.90
22895;DHT22;11614;52.494;6.976;2022-08-07T02:26:03;10.70;99.90
22895;DHT22;11614;52.494;6.976;2022-08-07T02:28:30;10.70;99.90
22895;DHT22;11614;52.494;6.976;2022-08-07T02:30:56;10.90;99.90
22895;DHT22;11614;52.494;6.976;2022-08-07T02:33:24;10.80;99.90
22895;DHT22;11614;52.494;6.976;2022-08-07T02:35:52;10.70;99.90
22895;DHT22;11614;52.494;6.976;2022-08-07T02:38:20;10.70;99.90
22895;DHT22;11614;52.494;6.976;2022-08-07T02:40:47;10.70;99.90
22895;DHT22;11614;52.494;6.976;2022-08-07T02:43:14;10.70;99.90
22895;DHT22;11614;52.494;6.976;2022-08-07T02:45:41;10.70;99.90
22895;DHT22;11614;52.494;6.976;2022-08-07T02:48:07;10.70;99.90
22895;DHT22;11614;52.494;6.976;2022-08-07T02:50:37;10.70;99.90
22895;DHT22;11614;52.494;6.976;2022-08-07T02:53:23;10.70;99.90
22895;DHT22;11614;52.494;6.976;2022-08-07T04:46:06;12.60;99.90
22895;DHT22;11614;52.494;6.976;2022-08-07T04:51:09;13.70;99.90
22895;DHT22;11614;52.494;6.976;2022-08-07T04:53:49;14.40;99.90
22895;DHT22;11614;52.494;6.976;2022-08-07T04:56:19;14.90;99.90
22895;DHT22;11614;52.494;6.976;2022-08-07T04:58:56;14.90;99.90
22895;DHT22;11614;52.494;6.976;2022-08-07T05:04:12;14.40;99.90
22895;DHT22;11614;52.494;6.976;2022-08-07T05:06:48;13.70;99.90
22895;DHT22;11614;52.494;6.976;2022-08-07T05:12:10;13.60;99.90
22895;DHT22;11614;52.494;6.976;2022-08-07T05:14:46;13.80;99.90
22895;DHT22;11614;52.494;6.976;2022-08-07T05:17:15;14.10;99.90
22895;DHT22;11614;52.494;6.976;2022-08-07T05:29:31;19.10;99.90
22895;DHT22;11614;52.494;6.976;2022-08-07T05:31:59;21.30;99.90
22895;DHT22;11614;52.494;6.976;2022-08-07T20:13:06;18.40;57.40
22895;DHT22;11614;52.494;6.976;2022-08-07T20:15:34;18.20;58.60
22895;DHT22;11614;52.494;6.976;2022-08-07T20:25:28;18.00;59.20
22895;DHT22;11614;52.494;6.976;2022-08-07T20:27:56;18.00;60.00
22895;DHT22;11614;52.494;6.976;2022-08-07T20:30:32;17.90;60.30
22895;DHT22;11614;52.494;6.976;2022-08-07T20:32:59;17.70;60.30
22895;DHT22;11614;52.494;6.976;2022-08-07T20:38:13;17.70;62.80
22895;DHT22;11614;52.494;6.976;2022-08-07T20:40:51;17.70;64.50
22895;DHT22;11614;52.494;6.976;2022-08-07T20:43:18;17.70;65.30
22895;DHT22;11614;52.494;6.976;2022-08-07T20:45:52;17.70;64.50
22895;DHT22;11614;52.494;6.976;2022-08-07T20:48:22;17.60;65.30
22895;DHT22;11614;52.494;6.976;2022-08-07T20:50:52;17.50;66.10
22895;DHT22;11614;52.494;6.976;2022-08-07T20:53:18;17.50;66.10
22895;DHT22;11614;52.494;6.976;2022-08-07T20:55:51;17.50;69.00
22895;DHT22;11614;52.494;6.976;2022-08-07T20:58:20;17.50;69.00
22895;DHT22;11614;52.494;6.976;2022-08-07T21:00:54;17.50;70.80
22895;DHT22;11614;52.494;6.976;2022-08-07T21:03:26;17.50;72.40
22895;DHT22;11614;52.494;6.976;2022-08-07T21:05:56;17.50;73.20
22895;DHT22;11614;52.494;6.976;2022-08-07T21:08:35;17.40;73.40
22895;DHT22;11614;52.494;6.976;2022-08-07T21:11:02;17.40;77.40
22895;DHT22;11614;52.494;6.976;2022-08-07T21:13:30;17.40;78.10
22895;DHT22;11614;52.494;6.976;2022-08-07T21:16:00;17.30;82.30
22895;DHT22;11614;52.494;6.976;2022-08-07T21:18:36;17.30;84.50
22895;DHT22;11614;52.494;6.976;2022-08-07T21:28:56;17.10;92.50
22895;DHT22;11614;52.494;6.976;2022-08-07T21:31:35;17.10;92.80
22895;DHT22;11614;52.494;6.976;2022-08-07T21:34:08;17.10;96.20
22895;DHT22;11614;52.494;6.976;2022-08-07T21:36:43;17.00;96.30
22895;DHT22;11614;52.494;6.976;2022-08-07T21:41:50;16.90;97.50
22895;DHT22;11614;52.494;6.976;2022-08-07T21:44:37;16.70;98.70
22895;DHT22;11614;52.494;6.976;2022-08-07T21:47:13;16.60;99.90
22895;DHT22;11614;52.494;6.976;2022-08-07T21:49:49;16.50;99.90
22895;DHT22;11614;52.494;6.976;2022-08-07T21:52:41;16.40;99.90
22895;DHT22;11614;52.494;6.976;2022-08-07T21:55:20;16.40;99.90
22895;DHT22;11614;52.494;6.976;2022-08-07T22:00:20;16.20;99.90
22895;DHT22;11614;52.494;6.976;2022-08-07T22:03:00;16.30;99.90
22895;DHT22;11614;52.494;6.976;2022-08-07T22:05:31;16.20;99.90
22895;DHT22;11614;52.494;6.976;2022-08-07T22:07:59;16.10;99.90
22895;DHT22;11614;52.494;6.976;2022-08-07T22:10:30;16.10;99.90
22895;DHT22;11614;52.494;6.976;2022-08-07T22:12:59;16.10;99.90
22895;DHT22;11614;52.494;6.976;2022-08-07T22:15:40;15.80;99.90
22895;DHT22;11614;52.494;6.976;2022-08-07T22:18:12;15.90;99.90
22895;DHT22;11614;52.494;6.976;2022-08-07T22:26:03;16.10;99.90
22895;DHT22;11614;52.494;6.976;2022-08-07T22:28:42;16.00;99.90
22895;DHT22;11614;52.494;6.976;2022-08-07T22:31:36;16.90;99.90
22895;DHT22;11614;52.494;6.976;2022-08-07T22:34:14;15.80;99.90
22895;DHT22;11614;52.494;6.976;2022-08-07T22:36:59;15.70;99.90
22895;DHT22;11614;52.494;6.976;2022-08-07T22:40:00;15.60;99.90
22895;DHT22;11614;52.494;6.976;2022-08-07T22:42:30;15.50;99.90
22895;DHT22;11614;52.494;6.976;2022-08-07T22:44:59;15.60;99.90
22895;DHT22;11614;52.494;6.976;2022-08-07T22:48:04;15.50;99.90
22895;DHT22;11614;52.494;6.976;2022-08-07T22:56:07;15.40;99.90
22895;DHT22;11614;52.494;6.976;2022-08-07T22:59:12;15.40;99.90
22895;DHT22;11614;52.494;6.976;2022-08-07T23:15:26;14.70;99.90
22895;DHT22;11614;52.494;6.976;2022-08-07T23:26:22;14.50;99.90
22895;DHT22;11614;52.494;6.976;2022-08-07T23:32:02;14.90;99.90
22895;DHT22;11614;52.494;6.976;2022-08-07T23:40:07;15.20;99.90
22895;DHT22;11614;52.494;6.976;2022-08-07T23:45:29;14.80;99.90
22895;DHT22;11614;52.494;6.976;2022-08-07T23:50:58;15.10;99.90
22895;DHT22;11614;52.494;6.976;2022-08-07T23:56:26;14.70;99.90
22895;DHT22;11614;52.494;6.976;2022-08-07T23:59:31;14.70;99.90
